createdAt,value
2018-05-06T00:00:16.986Z,55.93
2018-05-06T00:01:22.506Z,55.74
2018-05-06T00:02:28.018Z,56.02
2018-05-06T00:03:33.533Z,55.83
2018-05-06T00:04:39.047Z,56.12
2018-05-06T00:05:44.561Z,56.02
2018-05-06T00:06:50.073Z,56.40
2018-05-06T00:07:55.584Z,56.79
2018-05-06T00:09:01.106Z,56.98
2018-05-06T00:10:06.617Z,57.07
2018-05-06T00:11:12.173Z,56.98
2018-05-06T00:12:17.639Z,57.07
2018-05-06T00:13:23.164Z,57.36
2018-05-06T00:14:28.670Z,57.75
2018-05-06T00:15:34.185Z,57.46
2018-05-06T00:16:39.704Z,57.46
2018-05-06T00:17:45.213Z,57.65
2018-05-06T00:18:50.724Z,57.71
2018-05-06T00:19:56.237Z,57.46
2018-05-06T00:21:01.764Z,57.43
2018-05-06T00:22:07.265Z,57.71
2018-05-06T00:23:12.778Z,58.76
2018-05-06T00:24:18.293Z,58.38
2018-05-06T00:25:23.808Z,58.38
2018-05-06T00:26:29.320Z,58.38
2018-05-06T00:27:34.836Z,58.38
2018-05-06T00:28:40.348Z,58.19
2018-05-06T00:29:45.876Z,58.10
2018-05-06T00:30:51.383Z,58.58
2018-05-06T00:31:56.901Z,59.05
2018-05-06T00:33:02.409Z,59.05
2018-05-06T00:34:07.916Z,59.34
2018-05-06T00:35:13.439Z,58.67
2018-05-06T00:36:18.944Z,59.05
2018-05-06T00:37:24.456Z,58.95
2018-05-06T00:38:29.979Z,59.15
2018-05-06T00:39:35.486Z,59.69
2018-05-06T00:40:40.996Z,59.69
2018-05-06T00:41:46.516Z,59.59
2018-05-06T00:42:52.024Z,59.59
2018-05-06T00:43:57.543Z,59.78
2018-05-06T00:45:03.057Z,60.36
2018-05-06T00:46:08.564Z,60.74
2018-05-06T00:47:14.080Z,60.55
2018-05-06T00:48:19.592Z,60.36
2018-05-06T00:49:25.106Z,60.36
2018-05-06T00:50:30.647Z,60.55
2018-05-06T00:51:36.168Z,60.46
2018-05-06T00:52:41.648Z,60.46
2018-05-06T00:53:47.162Z,60.74
2018-05-06T00:54:52.679Z,60.64
2018-05-06T00:55:58.187Z,60.84
2018-05-06T00:57:03.697Z,61.51
2018-05-06T00:58:09.213Z,61.22
2018-05-06T00:59:14.732Z,61.13
2018-05-06T01:00:20.237Z,61.19
2018-05-06T01:01:25.756Z,61.00
2018-05-06T01:02:31.270Z,61.38
2018-05-06T01:03:36.775Z,62.24
2018-05-06T01:04:42.293Z,61.86
2018-05-06T01:05:47.817Z,61.95
2018-05-06T01:06:53.316Z,62.52
2018-05-06T01:07:58.830Z,62.05
2018-05-06T01:09:04.344Z,62.24
2018-05-06T01:10:09.854Z,62.52
2018-05-06T01:11:15.379Z,62.15
2018-05-06T01:12:20.909Z,62.15
2018-05-06T01:13:26.397Z,62.24
2018-05-06T01:14:31.910Z,62.15
2018-05-06T01:15:37.422Z,62.62
2018-05-06T01:16:42.944Z,62.52
2018-05-06T01:17:48.449Z,62.81
2018-05-06T01:18:53.962Z,62.62
2018-05-06T01:19:59.485Z,62.62
2018-05-06T01:21:04.986Z,62.88
2018-05-06T01:22:10.555Z,62.78
2018-05-06T01:23:16.024Z,62.68
2018-05-06T01:24:21.523Z,63.07
2018-05-06T01:25:27.043Z,63.26
2018-05-06T01:26:32.546Z,64.02
2018-05-06T01:27:38.063Z,63.92
2018-05-06T01:28:43.573Z,63.64
2018-05-06T01:29:49.085Z,63.45
2018-05-06T01:30:54.604Z,63.54
2018-05-06T01:32:00.111Z,63.45
2018-05-06T01:33:05.626Z,63.64
2018-05-06T01:34:11.137Z,63.73
2018-05-06T01:35:16.661Z,63.35
2018-05-06T01:36:22.167Z,64.12
2018-05-06T01:37:27.675Z,64.50
2018-05-06T01:38:33.185Z,64.02
2018-05-06T01:39:38.716Z,64.31
2018-05-06T01:40:44.216Z,64.12
2018-05-06T01:41:49.729Z,64.88
2018-05-06T01:42:55.239Z,64.97
2018-05-06T01:44:00.749Z,65.07
2018-05-06T01:45:06.268Z,64.97
2018-05-06T01:46:11.777Z,64.31
2018-05-06T01:47:17.303Z,64.21
2018-05-06T01:48:22.800Z,64.69
2018-05-06T01:49:28.315Z,64.59
2018-05-06T01:50:33.826Z,65.07
2018-05-06T01:51:39.342Z,64.78
2018-05-06T01:52:44.850Z,65.36
2018-05-06T01:53:50.361Z,65.17
2018-05-06T01:54:55.874Z,65.42
2018-05-06T01:56:01.386Z,65.33
2018-05-06T01:57:06.914Z,65.17
2018-05-06T01:58:12.421Z,65.04
2018-05-06T01:59:17.927Z,64.94
2018-05-06T02:00:23.439Z,65.42
2018-05-06T02:01:28.948Z,65.23
2018-05-06T02:02:34.464Z,65.42
2018-05-06T02:03:39.973Z,65.52
2018-05-06T02:04:45.560Z,65.42
2018-05-06T02:05:50.998Z,65.52
2018-05-06T02:06:56.511Z,65.23
2018-05-06T02:08:02.026Z,65.33
2018-05-06T02:09:07.549Z,65.42
2018-05-06T02:10:13.054Z,65.52
2018-05-06T02:11:18.571Z,65.80
2018-05-06T02:12:24.072Z,65.99
2018-05-06T02:13:29.583Z,65.61
2018-05-06T02:14:35.102Z,65.89
2018-05-06T02:15:40.619Z,65.99
2018-05-06T02:16:46.139Z,65.70
2018-05-06T02:17:51.656Z,66.09
2018-05-06T02:18:57.148Z,66.18
2018-05-06T02:20:02.699Z,66.75
2018-05-06T02:21:08.171Z,66.66
2018-05-06T02:22:13.683Z,66.66
2018-05-06T02:23:19.195Z,66.38
2018-05-06T02:24:24.709Z,66.75
2018-05-06T02:25:30.224Z,66.85
2018-05-06T02:26:35.733Z,67.10
2018-05-06T02:27:41.248Z,67.71
2018-05-06T02:28:46.835Z,67.58
2018-05-06T02:29:52.266Z,67.58
2018-05-06T02:30:57.780Z,67.77
2018-05-06T02:32:03.290Z,68.05
2018-05-06T02:33:08.807Z,68.53
2018-05-06T02:34:14.322Z,68.72
2018-05-06T02:35:19.827Z,69.39
2018-05-06T02:36:25.348Z,69.10
2018-05-06T02:37:30.849Z,69.10
2018-05-06T02:38:36.368Z,69.39
2018-05-06T02:39:41.878Z,69.58
2018-05-06T02:40:47.386Z,69.68
2018-05-06T02:41:52.900Z,69.77
2018-05-06T02:42:58.409Z,69.48
2018-05-06T02:44:03.925Z,69.29
2018-05-06T02:45:09.470Z,69.29
2018-05-06T02:46:14.955Z,69.39
2018-05-06T02:47:20.461Z,70.15
2018-05-06T02:48:25.971Z,69.77
2018-05-06T02:49:31.486Z,69.68
2018-05-06T02:50:37.025Z,69.96
2018-05-06T02:51:42.516Z,70.25
2018-05-06T02:52:48.017Z,69.87
2018-05-06T02:53:53.575Z,69.87
2018-05-06T02:54:59.044Z,69.20
2018-05-06T02:56:04.568Z,69.39
2018-05-06T02:57:10.068Z,69.39
2018-05-06T02:58:15.591Z,69.29
2018-05-06T02:59:21.091Z,69.48
2018-05-06T03:00:26.602Z,69.20
2018-05-06T03:01:32.115Z,69.07
2018-05-06T03:02:37.624Z,69.26
2018-05-06T03:03:43.136Z,69.48
2018-05-06T03:04:48.650Z,69.29
2018-05-06T03:05:54.162Z,69.87
2018-05-06T03:06:59.674Z,69.77
2018-05-06T03:08:05.180Z,69.87
2018-05-06T03:09:10.691Z,69.87
2018-05-06T03:10:16.210Z,69.74
2018-05-06T03:11:21.724Z,69.93
2018-05-06T03:12:27.244Z,70.06
2018-05-06T03:13:32.740Z,70.12
2018-05-06T03:14:38.251Z,70.02
2018-05-06T03:15:43.761Z,70.44
2018-05-06T03:16:49.283Z,70.21
2018-05-06T03:17:54.787Z,70.31
2018-05-06T03:19:00.298Z,70.78
2018-05-06T03:20:05.811Z,70.31
2018-05-06T03:21:11.328Z,70.25
2018-05-06T03:22:16.850Z,70.31
2018-05-06T03:23:22.356Z,70.50
2018-05-06T03:24:27.856Z,70.50
2018-05-06T03:25:33.369Z,70.40
2018-05-06T03:26:38.884Z,70.31
2018-05-06T03:27:44.395Z,70.31
2018-05-06T03:28:49.902Z,70.40
2018-05-06T03:29:55.414Z,70.78
2018-05-06T03:31:00.925Z,70.21
2018-05-06T03:32:06.434Z,70.88
2018-05-06T03:33:12.034Z,70.31
2018-05-06T03:34:17.572Z,70.40
2018-05-06T03:35:22.970Z,70.31
2018-05-06T03:36:28.487Z,70.12
2018-05-06T03:37:33.996Z,70.40
2018-05-06T03:38:39.543Z,70.50
2018-05-06T03:39:45.028Z,70.40
2018-05-06T03:40:50.532Z,70.78
2018-05-06T03:41:56.041Z,71.55
2018-05-06T03:43:01.554Z,71.55
2018-05-06T03:44:07.065Z,71.36
2018-05-06T03:45:12.597Z,71.17
2018-05-06T03:46:18.088Z,71.26
2018-05-06T03:47:23.597Z,71.73
2018-05-06T03:48:29.110Z,71.45
2018-05-06T03:49:34.627Z,71.55
2018-05-06T03:50:40.140Z,71.73
2018-05-06T03:51:45.643Z,71.17
2018-05-06T03:52:51.156Z,71.17
2018-05-06T03:53:56.666Z,71.26
2018-05-06T03:55:02.176Z,71.26
2018-05-06T03:56:07.692Z,71.45
2018-05-06T03:57:13.213Z,71.17
2018-05-06T03:58:18.709Z,71.07
2018-05-06T03:59:24.222Z,71.17
2018-05-06T04:00:29.834Z,71.55
2018-05-06T04:01:35.247Z,71.55
2018-05-06T04:02:40.765Z,71.36
2018-05-06T04:03:46.270Z,71.36
2018-05-06T04:04:51.783Z,71.55
2018-05-06T04:05:57.295Z,70.40
2018-05-06T04:07:02.814Z,70.40
2018-05-06T04:08:08.312Z,70.59
2018-05-06T04:09:13.824Z,70.50
2018-05-06T04:10:19.346Z,71.26
2018-05-06T04:11:24.848Z,71.26
2018-05-06T04:12:30.362Z,71.07
2018-05-06T04:13:35.884Z,71.26
2018-05-06T04:14:41.386Z,71.45
2018-05-06T04:15:46.900Z,71.73
2018-05-06T04:16:52.403Z,71.93
2018-05-06T04:17:57.916Z,71.55
2018-05-06T04:19:03.518Z,71.55
2018-05-06T04:20:08.941Z,72.02
2018-05-06T04:21:14.498Z,72.41
2018-05-06T04:22:19.968Z,71.93
2018-05-06T04:23:25.477Z,72.78
2018-05-06T04:24:30.985Z,72.78
2018-05-06T04:25:36.494Z,72.56
2018-05-06T04:26:42.050Z,73.17
2018-05-06T04:27:47.516Z,73.22
2018-05-06T04:28:53.027Z,73.13
2018-05-06T04:29:58.539Z,73.22
2018-05-06T04:31:04.057Z,73.45
2018-05-06T04:32:09.565Z,72.78
2018-05-06T04:33:15.077Z,73.36
2018-05-06T04:34:20.590Z,73.36
2018-05-06T04:35:26.096Z,73.17
2018-05-06T04:36:31.608Z,73.07
2018-05-06T04:37:37.120Z,73.17
2018-05-06T04:38:42.637Z,73.17
2018-05-06T04:39:48.149Z,73.17
2018-05-06T04:40:53.651Z,73.36
2018-05-06T04:41:59.168Z,73.55
2018-05-06T04:43:04.673Z,73.07
2018-05-06T04:44:10.206Z,73.07
2018-05-06T04:45:15.708Z,73.17
2018-05-06T04:46:21.215Z,73.65
2018-05-06T04:47:26.725Z,73.65
2018-05-06T04:48:32.249Z,73.36
2018-05-06T04:49:37.753Z,73.74
2018-05-06T04:50:43.266Z,73.74
2018-05-06T04:51:48.877Z,74.21
2018-05-06T04:52:54.278Z,74.12
2018-05-06T04:53:59.809Z,74.12
2018-05-06T04:55:05.300Z,74.12
2018-05-06T04:56:10.815Z,73.93
2018-05-06T04:57:16.326Z,73.93
2018-05-06T04:58:21.838Z,74.12
2018-05-06T04:59:27.350Z,73.26
2018-05-06T05:00:32.857Z,73.36
2018-05-06T05:01:38.369Z,73.26
2018-05-06T05:02:43.880Z,73.26
2018-05-06T05:03:49.393Z,74.31
2018-05-06T05:04:54.903Z,73.93
2018-05-06T05:06:00.420Z,73.96
2018-05-06T05:07:05.930Z,74.12
2018-05-06T05:08:11.437Z,73.45
2018-05-06T05:09:16.949Z,73.74
2018-05-06T05:10:22.459Z,73.39
2018-05-06T05:11:27.979Z,73.74
2018-05-06T05:12:33.482Z,73.21
2018-05-06T05:13:38.994Z,73.77
2018-05-06T05:14:44.507Z,74.16
2018-05-06T05:15:50.023Z,74.35
2018-05-06T05:16:55.540Z,74.16
2018-05-06T05:18:01.048Z,73.96
2018-05-06T05:19:06.556Z,74.06
2018-05-06T05:20:12.066Z,73.68
2018-05-06T05:21:17.577Z,73.21
2018-05-06T05:22:23.096Z,73.21
2018-05-06T05:23:28.611Z,73.24
2018-05-06T05:24:34.125Z,72.44
2018-05-06T05:25:39.632Z,73.24
2018-05-06T05:26:45.141Z,73.33
2018-05-06T05:27:50.654Z,72.86
2018-05-06T05:28:56.161Z,72.38
2018-05-06T05:30:01.670Z,73.43
2018-05-06T05:31:07.191Z,73.05
2018-05-06T05:32:12.704Z,73.14
2018-05-06T05:33:18.210Z,73.24
2018-05-06T05:34:23.803Z,73.52
2018-05-06T05:35:29.235Z,73.33
2018-05-06T05:36:34.742Z,72.89
2018-05-06T05:37:40.265Z,72.23
2018-05-06T05:38:45.767Z,71.37
2018-05-06T05:39:51.291Z,71.27
2018-05-06T05:40:56.792Z,71.27
2018-05-06T05:42:02.303Z,71.84
2018-05-06T05:43:07.817Z,71.37
2018-05-06T05:44:13.327Z,71.27
2018-05-06T05:45:18.838Z,71.46
2018-05-06T05:46:24.356Z,71.18
2018-05-06T05:47:29.867Z,71.46
2018-05-06T05:48:35.378Z,71.27
2018-05-06T05:49:40.888Z,71.84
2018-05-06T05:50:46.399Z,71.41
2018-05-06T05:51:51.919Z,71.46
2018-05-06T05:52:57.431Z,71.41
2018-05-06T05:54:02.938Z,71.88
2018-05-06T05:55:08.455Z,71.59
2018-05-06T05:56:13.968Z,71.31
2018-05-06T05:57:19.473Z,71.50
2018-05-06T05:58:24.988Z,71.41
2018-05-06T05:59:30.503Z,71.02
2018-05-06T06:00:36.017Z,70.83
2018-05-06T06:01:41.528Z,70.45
2018-05-06T06:02:47.048Z,69.11
2018-05-06T06:03:52.572Z,68.73
2018-05-06T06:04:58.064Z,68.26
2018-05-06T06:06:03.577Z,67.81
2018-05-06T06:07:09.088Z,67.81
2018-05-06T06:08:14.600Z,67.62
2018-05-06T06:09:20.113Z,68.10
2018-05-06T06:10:25.626Z,68.19
2018-05-06T06:11:31.146Z,69.05
2018-05-06T06:12:36.657Z,69.43
2018-05-06T06:13:42.186Z,69.34
2018-05-06T06:14:47.689Z,68.67
2018-05-06T06:15:53.191Z,68.76
2018-05-06T06:16:58.717Z,68.57
2018-05-06T06:18:04.218Z,68.67
2018-05-06T06:19:09.731Z,68.23
2018-05-06T06:20:15.243Z,68.13
2018-05-06T06:21:20.757Z,67.27
2018-05-06T06:22:26.269Z,66.31
2018-05-06T06:23:31.781Z,66.13
2018-05-06T06:24:37.354Z,66.50
2018-05-06T06:25:42.815Z,66.50
2018-05-06T06:26:48.327Z,66.50
2018-05-06T06:27:53.837Z,66.16
2018-05-06T06:28:59.356Z,66.35
2018-05-06T06:30:04.862Z,66.44
2018-05-06T06:31:10.383Z,66.44
2018-05-06T06:32:15.891Z,66.44
2018-05-06T06:33:21.413Z,66.35
2018-05-06T06:34:26.925Z,65.39
2018-05-06T06:35:32.433Z,65.87
2018-05-06T06:36:37.944Z,65.58
2018-05-06T06:37:43.461Z,65.39
2018-05-06T06:38:49.008Z,64.66
2018-05-06T06:39:54.498Z,64.37
2018-05-06T06:41:00.007Z,62.84
2018-05-06T06:42:05.515Z,62.74
2018-05-06T06:43:11.027Z,62.65
2018-05-06T06:44:16.542Z,62.17
2018-05-06T06:45:22.098Z,60.64
2018-05-06T06:46:27.565Z,60.64
2018-05-06T06:47:33.082Z,60.67
2018-05-06T06:48:38.595Z,59.97
2018-05-06T06:49:44.106Z,59.14
2018-05-06T06:50:49.642Z,58.86
2018-05-06T06:51:55.141Z,58.86
2018-05-06T06:53:00.650Z,58.47
2018-05-06T06:54:06.168Z,58.18
2018-05-06T06:55:11.682Z,58.31
2018-05-06T06:56:17.193Z,57.83
2018-05-06T06:57:22.710Z,57.54
2018-05-06T06:58:28.223Z,57.83
2018-05-06T06:59:33.742Z,57.83
2018-05-06T07:00:39.255Z,57.83
2018-05-06T07:01:44.767Z,58.88
2018-05-06T07:02:50.278Z,58.69
2018-05-06T07:03:55.801Z,57.83
2018-05-06T07:05:01.309Z,58.50
2018-05-06T07:06:06.833Z,57.73
2018-05-06T07:07:12.336Z,57.26
2018-05-06T07:08:17.848Z,57.26
2018-05-06T07:09:23.367Z,56.32
2018-05-06T07:10:28.876Z,56.20
2018-05-06T07:11:34.394Z,56.23
2018-05-06T07:12:39.912Z,55.85
2018-05-06T07:13:45.426Z,55.94
2018-05-06T07:14:50.948Z,56.04
2018-05-06T07:15:56.449Z,55.36
2018-05-06T07:17:01.965Z,55.56
2018-05-06T07:18:07.480Z,55.08
2018-05-06T07:19:13.016Z,55.08
2018-05-06T07:20:18.511Z,55.08
2018-05-06T07:21:24.026Z,54.41
2018-05-06T07:22:29.544Z,54.79
2018-05-06T07:23:35.057Z,54.70
2018-05-06T07:24:40.575Z,54.89
2018-05-06T07:25:46.083Z,54.89
2018-05-06T07:26:51.600Z,54.22
2018-05-06T07:27:57.116Z,54.53
2018-05-06T07:29:02.626Z,54.34
2018-05-06T07:30:08.144Z,54.53
2018-05-06T07:31:13.668Z,53.67
2018-05-06T07:32:19.174Z,53.86
2018-05-06T07:33:24.688Z,54.91
2018-05-06T07:34:30.208Z,54.63
2018-05-06T07:35:35.722Z,54.34
2018-05-06T07:36:41.264Z,53.19
2018-05-06T07:37:46.745Z,53.58
2018-05-06T07:38:52.264Z,54.72
2018-05-06T07:39:57.778Z,54.63
2018-05-06T07:41:03.291Z,54.53
2018-05-06T07:42:08.810Z,54.63
2018-05-06T07:43:14.323Z,54.34
2018-05-06T07:44:19.838Z,53.50
2018-05-06T07:45:25.355Z,53.60
2018-05-06T07:46:30.869Z,53.22
2018-05-06T07:47:36.385Z,53.03
2018-05-06T07:48:41.902Z,52.93
2018-05-06T07:49:47.417Z,52.55
2018-05-06T07:50:52.931Z,52.64
2018-05-06T07:51:58.445Z,52.26
2018-05-06T07:53:03.968Z,52.36
2018-05-06T07:54:09.502Z,52.93
2018-05-06T07:55:14.990Z,52.93
2018-05-06T07:56:20.507Z,53.03
2018-05-06T07:57:26.028Z,53.31
2018-05-06T07:58:31.535Z,52.48
2018-05-06T07:59:37.055Z,52.48
2018-05-06T08:00:42.569Z,52.00
2018-05-06T08:01:48.088Z,52.09
2018-05-06T08:02:53.602Z,52.48
2018-05-06T08:03:59.188Z,52.28
2018-05-06T08:05:04.636Z,52.28
2018-05-06T08:06:10.149Z,51.81
2018-05-06T08:07:15.667Z,52.09
2018-05-06T08:08:21.177Z,52.31
2018-05-06T08:09:26.697Z,51.73
2018-05-06T08:10:32.211Z,51.73
2018-05-06T08:11:37.811Z,51.73
2018-05-06T08:12:43.243Z,51.06
2018-05-06T08:13:48.756Z,51.45
2018-05-06T08:14:54.282Z,51.25
2018-05-06T08:15:59.790Z,51.45
2018-05-06T08:17:05.314Z,51.73
2018-05-06T08:18:10.818Z,51.54
2018-05-06T08:19:16.345Z,50.68
2018-05-06T08:20:21.856Z,50.29
2018-05-06T08:21:27.366Z,50.01
2018-05-06T08:22:32.888Z,49.82
2018-05-06T08:23:38.402Z,50.20
2018-05-06T08:24:43.914Z,50.49
2018-05-06T08:25:49.430Z,50.20
2018-05-06T08:26:54.949Z,50.32
2018-05-06T08:28:00.465Z,50.80
2018-05-06T08:29:05.983Z,50.90
2018-05-06T08:30:11.512Z,50.42
2018-05-06T08:31:17.016Z,49.84
2018-05-06T08:32:22.527Z,49.84
2018-05-06T08:33:28.048Z,50.32
2018-05-06T08:34:33.560Z,50.23
2018-05-06T08:35:39.082Z,50.03
2018-05-06T08:36:44.593Z,50.03
2018-05-06T08:37:50.127Z,49.84
2018-05-06T08:38:55.628Z,49.93
2018-05-06T08:40:01.146Z,49.55
2018-05-06T08:41:06.661Z,49.65
2018-05-06T08:42:12.195Z,50.15
2018-05-06T08:43:17.692Z,50.25
2018-05-06T08:44:23.248Z,50.63
2018-05-06T08:45:28.727Z,50.34
2018-05-06T08:46:34.258Z,50.25
2018-05-06T08:47:39.756Z,49.87
2018-05-06T08:48:45.273Z,49.67
2018-05-06T08:49:50.797Z,48.71
2018-05-06T08:50:56.305Z,48.64
2018-05-06T08:52:01.828Z,48.25
2018-05-06T08:53:07.337Z,49.12
2018-05-06T08:54:12.855Z,48.74
2018-05-06T08:55:18.374Z,48.45
2018-05-06T08:56:23.887Z,48.45
2018-05-06T08:57:29.418Z,48.35
2018-05-06T08:58:34.926Z,48.45
2018-05-06T08:59:40.458Z,48.45
2018-05-06T09:00:45.958Z,47.97
2018-05-06T09:01:51.476Z,48.66
2018-05-06T09:02:57.009Z,48.28
2018-05-06T09:04:02.508Z,48.38
2018-05-06T09:05:08.034Z,48.66
2018-05-06T09:06:13.538Z,47.99
2018-05-06T09:07:19.056Z,47.31
2018-05-06T09:08:24.577Z,47.03
2018-05-06T09:09:30.094Z,47.03
2018-05-06T09:10:35.625Z,46.84
2018-05-06T09:11:41.124Z,46.47
2018-05-06T09:12:46.646Z,46.28
2018-05-06T09:13:52.164Z,45.42
2018-05-06T09:14:57.738Z,44.93
2018-05-06T09:16:03.195Z,44.93
2018-05-06T09:17:08.763Z,45.22
2018-05-06T09:18:14.234Z,44.74
2018-05-06T09:19:19.758Z,44.84
2018-05-06T09:20:25.262Z,44.26
2018-05-06T09:21:30.783Z,44.45
2018-05-06T09:22:36.306Z,44.74
2018-05-06T09:23:41.818Z,44.57
2018-05-06T09:24:47.339Z,44.57
2018-05-06T09:25:52.859Z,43.99
2018-05-06T09:26:58.369Z,43.80
2018-05-06T09:28:03.902Z,44.19
2018-05-06T09:29:09.418Z,44.57
2018-05-06T09:30:14.930Z,43.99
2018-05-06T09:31:20.442Z,43.90
2018-05-06T09:32:26.049Z,42.93
2018-05-06T09:33:31.479Z,42.55
2018-05-06T09:34:36.997Z,42.57
2018-05-06T09:35:42.535Z,41.89
2018-05-06T09:36:48.039Z,42.38
2018-05-06T09:37:53.568Z,42.09
2018-05-06T09:38:59.078Z,42.19
2018-05-06T09:40:04.589Z,41.51
2018-05-06T09:41:10.169Z,40.74
2018-05-06T09:42:15.619Z,39.97
2018-05-06T09:43:21.156Z,39.89
2018-05-06T09:44:26.655Z,40.19
2018-05-06T09:45:32.176Z,39.70
2018-05-06T09:46:37.691Z,39.70
2018-05-06T09:47:43.438Z,39.99
2018-05-06T09:48:48.741Z,40.19
2018-05-06T09:49:54.245Z,39.70
2018-05-06T09:50:59.760Z,40.47
2018-05-06T09:52:05.330Z,40.09
2018-05-06T09:53:10.825Z,40.86
2018-05-06T09:54:16.326Z,41.53
2018-05-06T09:55:21.841Z,41.34
2018-05-06T09:56:27.351Z,41.14
2018-05-06T09:57:32.870Z,41.07
2018-05-06T09:58:38.407Z,41.46
2018-05-06T09:59:43.911Z,41.27
2018-05-06T10:00:49.425Z,40.01
2018-05-06T10:01:54.953Z,40.30
2018-05-06T10:03:00.472Z,40.39
2018-05-06T10:04:05.979Z,40.97
2018-05-06T10:05:11.507Z,41.46
2018-05-06T10:06:17.019Z,42.15
2018-05-06T10:07:22.535Z,40.70
2018-05-06T10:08:28.066Z,39.94
2018-05-06T10:09:33.578Z,39.54
2018-05-06T10:10:39.098Z,39.06
2018-05-06T10:11:44.630Z,38.68
2018-05-06T10:12:50.136Z,38.29
2018-05-06T10:13:55.643Z,37.71
2018-05-06T10:15:01.170Z,38.29
2018-05-06T10:16:06.688Z,38.58
2018-05-06T10:17:12.200Z,39.36
2018-05-06T10:18:17.719Z,40.12
2018-05-06T10:19:23.238Z,40.63
2018-05-06T10:20:28.765Z,39.66
2018-05-06T10:21:34.276Z,40.05
2018-05-06T10:22:39.793Z,38.21
2018-05-06T10:23:45.318Z,38.51
2018-05-06T10:24:50.835Z,38.91
2018-05-06T10:25:56.353Z,38.62
2018-05-06T10:27:01.876Z,37.65
2018-05-06T10:28:07.472Z,38.04
2018-05-06T10:29:12.903Z,37.75
2018-05-06T10:30:18.428Z,38.43
2018-05-06T10:31:23.953Z,38.06
2018-05-06T10:32:29.575Z,36.22
2018-05-06T10:33:34.983Z,36.32
2018-05-06T10:34:40.514Z,36.32
2018-05-06T10:35:46.034Z,37.10
2018-05-06T10:36:51.550Z,37.58
2018-05-06T10:37:57.135Z,37.77
2018-05-06T10:39:02.592Z,36.71
2018-05-06T10:40:08.149Z,36.71
2018-05-06T10:41:13.618Z,37.30
2018-05-06T10:42:19.175Z,37.88
2018-05-06T10:43:24.658Z,37.70
2018-05-06T10:44:30.202Z,37.60
2018-05-06T10:45:35.694Z,37.50
2018-05-06T10:46:41.249Z,37.21
2018-05-06T10:47:46.748Z,38.00
2018-05-06T10:48:52.257Z,37.71
2018-05-06T10:49:57.784Z,36.16
2018-05-06T10:51:03.302Z,36.36
2018-05-06T10:52:08.827Z,35.88
2018-05-06T10:53:14.373Z,36.07
2018-05-06T10:54:19.865Z,35.97
2018-05-06T10:55:25.441Z,36.07
2018-05-06T10:56:30.891Z,35.58
2018-05-06T10:57:36.422Z,35.49
2018-05-06T10:58:41.935Z,36.07
2018-05-06T10:59:47.542Z,36.07
2018-05-06T11:00:52.969Z,36.16
2018-05-06T11:01:58.502Z,36.18
2018-05-06T11:03:04.039Z,36.18
2018-05-06T11:04:09.609Z,36.47
2018-05-06T11:05:15.050Z,36.47
2018-05-06T11:06:20.698Z,36.08
2018-05-06T11:07:26.091Z,36.38
2018-05-06T11:08:31.615Z,36.08
2018-05-06T11:09:37.129Z,36.28
2018-05-06T11:10:42.649Z,36.66
2018-05-06T11:11:48.179Z,36.38
2018-05-06T11:12:53.695Z,36.18
2018-05-06T11:13:59.213Z,36.18
2018-05-06T11:15:04.735Z,36.18
2018-05-06T11:16:10.253Z,36.18
2018-05-06T11:17:15.767Z,36.40
2018-05-06T11:18:21.291Z,36.58
2018-05-06T11:19:26.809Z,35.72
2018-05-06T11:20:32.327Z,35.52
2018-05-06T11:21:37.871Z,36.00
2018-05-06T11:22:43.379Z,36.40
2018-05-06T11:23:48.895Z,36.49
2018-05-06T11:24:54.406Z,36.22
2018-05-06T11:25:59.949Z,35.54
2018-05-06T11:27:05.463Z,35.15
2018-05-06T11:28:10.976Z,35.64
2018-05-06T11:29:16.497Z,35.05
2018-05-06T11:30:22.014Z,34.77
2018-05-06T11:31:27.538Z,35.05
2018-05-06T11:32:33.050Z,35.15
2018-05-06T11:33:38.575Z,35.54
2018-05-06T11:34:44.089Z,34.38
2018-05-06T11:35:49.619Z,34.19
2018-05-06T11:36:55.134Z,33.60
2018-05-06T11:38:00.661Z,34.09
2018-05-06T11:39:06.176Z,33.99
2018-05-06T11:40:11.707Z,33.80
2018-05-06T11:41:17.221Z,34.09
2018-05-06T11:42:22.736Z,34.67
2018-05-06T11:43:28.267Z,34.20
2018-05-06T11:44:33.776Z,33.72
2018-05-06T11:45:39.306Z,33.72
2018-05-06T11:46:44.832Z,33.81
2018-05-06T11:47:50.345Z,33.81
2018-05-06T11:48:55.871Z,34.11
2018-05-06T11:50:01.382Z,34.01
2018-05-06T11:51:06.918Z,34.11
2018-05-06T11:52:12.426Z,33.91
2018-05-06T11:53:17.941Z,33.62
2018-05-06T11:54:23.462Z,33.62
2018-05-06T11:55:28.998Z,33.62
2018-05-06T11:56:34.507Z,33.81
2018-05-06T11:57:40.026Z,34.01
2018-05-06T11:58:45.545Z,33.73
2018-05-06T11:59:51.073Z,34.02
2018-05-06T12:00:56.586Z,33.83
2018-05-06T12:02:02.130Z,33.54
2018-05-06T12:03:07.626Z,33.54
2018-05-06T12:04:13.154Z,33.92
2018-05-06T12:05:18.687Z,33.44
2018-05-06T12:06:24.203Z,33.64
2018-05-06T12:07:29.722Z,33.83
2018-05-06T12:08:35.236Z,33.25
2018-05-06T12:09:40.758Z,32.57
2018-05-06T12:10:46.280Z,32.37
2018-05-06T12:11:51.798Z,32.96
2018-05-06T12:12:57.318Z,32.96
2018-05-06T12:14:02.848Z,33.34
2018-05-06T12:15:08.367Z,32.57
2018-05-06T12:16:13.885Z,32.67
2018-05-06T12:17:19.401Z,32.96
2018-05-06T12:18:24.918Z,32.76
2018-05-06T12:19:30.448Z,33.34
2018-05-06T12:20:36.035Z,34.12
2018-05-06T12:21:41.515Z,33.36
2018-05-06T12:22:47.051Z,32.96
2018-05-06T12:23:52.709Z,32.87
2018-05-06T12:24:58.111Z,33.34
2018-05-06T12:26:03.788Z,33.75
2018-05-06T12:27:09.157Z,33.36
2018-05-06T12:28:14.683Z,33.25
2018-05-06T12:29:20.185Z,33.46
2018-05-06T12:30:25.689Z,32.47
2018-05-06T12:31:31.286Z,32.86
2018-05-06T12:32:36.743Z,33.34
2018-05-06T12:33:42.288Z,33.94
2018-05-06T12:34:47.781Z,33.75
2018-05-06T12:35:53.292Z,33.65
2018-05-06T12:36:58.833Z,33.36
2018-05-06T12:38:04.420Z,33.07
2018-05-06T12:39:09.869Z,32.59
2018-05-06T12:40:15.445Z,33.26
2018-05-06T12:41:20.894Z,33.46
2018-05-06T12:42:26.404Z,33.56
2018-05-06T12:43:32.043Z,34.04
2018-05-06T12:44:37.427Z,33.46
2018-05-06T12:45:42.950Z,32.87
2018-05-06T12:46:48.474Z,32.97
2018-05-06T12:47:53.991Z,33.56
2018-05-06T12:48:59.517Z,33.75
2018-05-06T12:50:05.041Z,33.46
2018-05-06T12:51:10.557Z,33.07
2018-05-06T12:52:16.095Z,33.07
2018-05-06T12:53:21.604Z,33.26
2018-05-06T12:54:27.126Z,33.56
2018-05-06T12:55:32.643Z,33.75
2018-05-06T12:56:38.158Z,34.23
2018-05-06T12:57:43.681Z,32.97
2018-05-06T12:58:49.206Z,33.36
2018-05-06T12:59:54.728Z,33.84
2018-05-06T13:01:00.249Z,34.43
2018-05-06T13:02:05.769Z,33.36
2018-05-06T13:03:11.292Z,33.65
2018-05-06T13:04:16.813Z,32.97
2018-05-06T13:05:22.337Z,33.09
2018-05-06T13:06:27.851Z,34.23
2018-05-06T13:07:33.372Z,34.35
2018-05-06T13:08:38.894Z,33.67
2018-05-06T13:09:44.427Z,33.38
2018-05-06T13:10:49.935Z,33.67
2018-05-06T13:11:55.462Z,33.67
2018-05-06T13:13:00.987Z,33.09
2018-05-06T13:14:06.503Z,32.79
2018-05-06T13:15:12.041Z,32.99
2018-05-06T13:16:17.543Z,32.99
2018-05-06T13:17:23.063Z,33.76
2018-05-06T13:18:28.588Z,33.47
2018-05-06T13:19:34.109Z,33.86
2018-05-06T13:20:39.626Z,33.76
2018-05-06T13:21:45.165Z,33.47
2018-05-06T13:22:50.671Z,32.79
2018-05-06T13:23:56.194Z,32.79
2018-05-06T13:25:01.718Z,32.99
2018-05-06T13:26:07.239Z,33.57
2018-05-06T13:27:12.772Z,33.76
2018-05-06T13:28:18.283Z,33.38
2018-05-06T13:29:23.806Z,33.57
2018-05-06T13:30:29.327Z,33.57
2018-05-06T13:31:34.843Z,32.99
2018-05-06T13:32:40.371Z,33.67
2018-05-06T13:33:45.886Z,33.57
2018-05-06T13:34:51.410Z,33.57
2018-05-06T13:35:56.927Z,33.76
2018-05-06T13:37:02.453Z,33.47
2018-05-06T13:38:07.975Z,33.28
2018-05-06T13:39:13.498Z,33.57
2018-05-06T13:40:19.015Z,32.78
2018-05-06T13:41:24.536Z,33.67
2018-05-06T13:42:30.061Z,33.67
2018-05-06T13:43:35.583Z,33.18
2018-05-06T13:44:41.124Z,33.38
2018-05-06T13:45:46.625Z,33.38
2018-05-06T13:46:52.144Z,33.96
2018-05-06T13:47:57.683Z,34.25
2018-05-06T13:49:03.196Z,33.76
2018-05-06T13:50:08.771Z,33.94
2018-05-06T13:51:14.239Z,33.84
2018-05-06T13:52:19.748Z,34.33
2018-05-06T13:53:25.278Z,34.72
2018-05-06T13:54:30.794Z,34.91
2018-05-06T13:55:36.412Z,34.81
2018-05-06T13:56:41.835Z,35.11
2018-05-06T13:57:47.357Z,34.33
2018-05-06T13:58:52.879Z,35.11
2018-05-06T13:59:58.406Z,34.91
2018-05-06T14:01:03.924Z,34.62
2018-05-06T14:02:09.449Z,34.23
2018-05-06T14:03:14.973Z,34.23